sensor_id;sensor_type;location;lat;lon;timestamp;P1;durP1;ratioP1;P2;durP2;ratioP2
6243;SDS011;3155;49.940;8.450;2023-09-18T00:01:13;10.93;;;5.40;;
6243;SDS011;3155;49.940;8.450;2023-09-18T00:03:40;10.00;;;5.60;;
6243;SDS011;3155;49.940;8.450;2023-09-18T00:06:08;9.05;;;5.10;;
6243;SDS011;3155;49.940;8.450;2023-09-18T00:08:38;8.15;;;5.15;;
6243;SDS011;3155;49.940;8.450;2023-09-18T00:11:06;8.43;;;5.15;;
6243;SDS011;3155;49.940;8.450;2023-09-18T00:13:33;9.33;;;5.40;;
6243;SDS011;3155;49.940;8.450;2023-09-18T00:16:00;8.02;;;4.85;;
6243;SDS011;3155;49.940;8.450;2023-09-18T00:18:30;11.87;;;5.00;;
6243;SDS011;3155;49.940;8.450;2023-09-18T00:20:57;7.25;;;4.88;;
6243;SDS011;3155;49.940;8.450;2023-09-18T00:23:24;7.27;;;4.90;;
6243;SDS011;3155;49.940;8.450;2023-09-18T00:25:52;9.07;;;5.07;;
6243;SDS011;3155;49.940;8.450;2023-09-18T00:28:19;9.07;;;5.10;;
6243;SDS011;3155;49.940;8.450;2023-09-18T00:30:47;8.37;;;5.00;;
6243;SDS011;3155;49.940;8.450;2023-09-18T00:33:15;8.07;;;4.82;;
6243;SDS011;3155;49.940;8.450;2023-09-18T00:35:46;6.72;;;4.78;;
6243;SDS011;3155;49.940;8.450;2023-09-18T00:38:16;9.02;;;4.72;;
6243;SDS011;3155;49.940;8.450;2023-09-18T00:40:47;7.43;;;4.72;;
6243;SDS011;3155;49.940;8.450;2023-09-18T00:43:17;5.53;;;4.65;;
6243;SDS011;3155;49.940;8.450;2023-09-18T00:45:45;8.53;;;4.23;;
6243;SDS011;3155;49.940;8.450;2023-09-18T00:48:12;6.82;;;4.43;;
6243;SDS011;3155;49.940;8.450;2023-09-18T00:50:41;8.82;;;5.13;;
6243;SDS011;3155;49.940;8.450;2023-09-18T00:53:11;8.63;;;4.97;;
6243;SDS011;3155;49.940;8.450;2023-09-18T00:55:39;6.53;;;4.80;;
6243;SDS011;3155;49.940;8.450;2023-09-18T00:58:09;5.00;;;4.47;;
6243;SDS011;3155;49.940;8.450;2023-09-18T01:00:36;6.20;;;4.55;;
6243;SDS011;3155;49.940;8.450;2023-09-18T01:03:04;7.78;;;4.68;;
6243;SDS011;3155;49.940;8.450;2023-09-18T01:05:38;8.00;;;4.32;;
6243;SDS011;3155;49.940;8.450;2023-09-18T01:08:05;6.35;;;4.85;;
6243;SDS011;3155;49.940;8.450;2023-09-18T01:10:33;8.70;;;4.90;;
6243;SDS011;3155;49.940;8.450;2023-09-18T01:13:04;5.38;;;4.47;;
6243;SDS011;3155;49.940;8.450;2023-09-18T01:15:44;9.13;;;4.72;;
6243;SDS011;3155;49.940;8.450;2023-09-18T01:18:13;7.57;;;4.30;;
6243;SDS011;3155;49.940;8.450;2023-09-18T01:20:40;6.43;;;4.73;;
6243;SDS011;3155;49.940;8.450;2023-09-18T01:23:07;4.85;;;4.40;;
6243;SDS011;3155;49.940;8.450;2023-09-18T01:25:35;7.80;;;4.63;;
6243;SDS011;3155;49.940;8.450;2023-09-18T01:28:05;6.07;;;4.47;;
6243;SDS011;3155;49.940;8.450;2023-09-18T01:30:34;7.65;;;5.10;;
6243;SDS011;3155;49.940;8.450;2023-09-18T01:33:01;7.43;;;4.70;;
6243;SDS011;3155;49.940;8.450;2023-09-18T01:35:29;6.05;;;4.82;;
6243;SDS011;3155;49.940;8.450;2023-09-18T01:37:59;6.88;;;4.45;;
6243;SDS011;3155;49.940;8.450;2023-09-18T01:40:27;7.68;;;4.63;;
6243;SDS011;3155;49.940;8.450;2023-09-18T01:42:54;8.17;;;4.40;;
6243;SDS011;3155;49.940;8.450;2023-09-18T01:45:24;7.75;;;4.63;;
6243;SDS011;3155;49.940;8.450;2023-09-18T01:47:51;6.60;;;4.68;;
6243;SDS011;3155;49.940;8.450;2023-09-18T01:50:18;7.65;;;4.43;;
6243;SDS011;3155;49.940;8.450;2023-09-18T01:52:45;8.85;;;4.63;;
6243;SDS011;3155;49.940;8.450;2023-09-18T01:55:13;5.07;;;4.50;;
6243;SDS011;3155;49.940;8.450;2023-09-18T01:57:40;7.43;;;4.57;;
6243;SDS011;3155;49.940;8.450;2023-09-18T02:00:09;6.97;;;4.80;;
6243;SDS011;3155;49.940;8.450;2023-09-18T02:02:36;10.02;;;4.90;;
6243;SDS011;3155;49.940;8.450;2023-09-18T02:05:23;6.65;;;5.43;;
6243;SDS011;3155;49.940;8.450;2023-09-18T02:07:51;6.40;;;5.43;;
6243;SDS011;3155;49.940;8.450;2023-09-18T02:10:19;6.43;;;5.10;;
6243;SDS011;3155;49.940;8.450;2023-09-18T02:12:46;7.67;;;5.87;;
6243;SDS011;3155;49.940;8.450;2023-09-18T02:15:13;9.47;;;6.10;;
6243;SDS011;3155;49.940;8.450;2023-09-18T02:17:48;9.05;;;6.53;;
6243;SDS011;3155;49.940;8.450;2023-09-18T02:20:15;9.88;;;5.55;;
6243;SDS011;3155;49.940;8.450;2023-09-18T02:22:44;9.10;;;6.10;;
6243;SDS011;3155;49.940;8.450;2023-09-18T02:25:13;10.43;;;7.03;;
6243;SDS011;3155;49.940;8.450;2023-09-18T02:27:43;10.30;;;6.63;;
6243;SDS011;3155;49.940;8.450;2023-09-18T02:30:13;13.20;;;6.57;;
6243;SDS011;3155;49.940;8.450;2023-09-18T02:32:45;6.63;;;5.88;;
6243;SDS011;3155;49.940;8.450;2023-09-18T02:35:12;6.95;;;5.80;;
6243;SDS011;3155;49.940;8.450;2023-09-18T02:37:40;6.45;;;5.68;;
6243;SDS011;3155;49.940;8.450;2023-09-18T02:40:07;11.65;;;6.75;;
6243;SDS011;3155;49.940;8.450;2023-09-18T02:42:34;9.85;;;6.53;;
6243;SDS011;3155;49.940;8.450;2023-09-18T02:45:01;8.10;;;6.10;;
6243;SDS011;3155;49.940;8.450;2023-09-18T02:47:28;10.93;;;6.20;;
6243;SDS011;3155;49.940;8.450;2023-09-18T02:49:55;9.02;;;5.90;;
6243;SDS011;3155;49.940;8.450;2023-09-18T02:52:25;9.67;;;5.77;;
6243;SDS011;3155;49.940;8.450;2023-09-18T02:54:52;8.00;;;5.93;;
6243;SDS011;3155;49.940;8.450;2023-09-18T02:57:21;6.00;;;5.20;;
6243;SDS011;3155;49.940;8.450;2023-09-18T02:59:48;6.07;;;5.47;;
6243;SDS011;3155;49.940;8.450;2023-09-18T03:02:15;7.53;;;5.75;;
6243;SDS011;3155;49.940;8.450;2023-09-18T03:04:42;8.70;;;5.90;;
6243;SDS011;3155;49.940;8.450;2023-09-18T03:07:12;8.45;;;5.47;;
6243;SDS011;3155;49.940;8.450;2023-09-18T03:09:42;6.38;;;5.18;;
6243;SDS011;3155;49.940;8.450;2023-09-18T03:12:09;8.55;;;6.05;;
6243;SDS011;3155;49.940;8.450;2023-09-18T03:14:36;9.15;;;5.63;;
6243;SDS011;3155;49.940;8.450;2023-09-18T03:17:04;10.77;;;5.90;;
6243;SDS011;3155;49.940;8.450;2023-09-18T03:19:31;10.13;;;5.40;;
6243;SDS011;3155;49.940;8.450;2023-09-18T03:22:00;10.35;;;5.63;;
6243;SDS011;3155;49.940;8.450;2023-09-18T03:24:28;8.70;;;5.33;;
6243;SDS011;3155;49.940;8.450;2023-09-18T03:26:58;8.27;;;5.45;;
6243;SDS011;3155;49.940;8.450;2023-09-18T03:29:25;5.57;;;5.07;;
6243;SDS011;3155;49.940;8.450;2023-09-18T03:31:52;6.55;;;5.55;;
6243;SDS011;3155;49.940;8.450;2023-09-18T03:34:24;6.97;;;5.60;;
6243;SDS011;3155;49.940;8.450;2023-09-18T03:36:53;6.13;;;4.88;;
6243;SDS011;3155;49.940;8.450;2023-09-18T03:39:20;11.07;;;6.00;;
6243;SDS011;3155;49.940;8.450;2023-09-18T03:41:50;8.43;;;5.35;;
6243;SDS011;3155;49.940;8.450;2023-09-18T03:44:17;7.95;;;5.30;;
6243;SDS011;3155;49.940;8.450;2023-09-18T03:46:44;6.90;;;5.18;;
6243;SDS011;3155;49.940;8.450;2023-09-18T03:49:11;10.43;;;5.53;;
6243;SDS011;3155;49.940;8.450;2023-09-18T03:51:41;7.00;;;5.13;;
6243;SDS011;3155;49.940;8.450;2023-09-18T03:54:11;8.27;;;5.10;;
6243;SDS011;3155;49.940;8.450;2023-09-18T03:56:38;7.30;;;4.80;;
6243;SDS011;3155;49.940;8.450;2023-09-18T03:59:06;12.97;;;5.97;;
6243;SDS011;3155;49.940;8.450;2023-09-18T04:01:34;8.83;;;5.80;;
6243;SDS011;3155;49.940;8.450;2023-09-18T04:04:01;10.50;;;5.70;;
6243;SDS011;3155;49.940;8.450;2023-09-18T04:06:40;8.55;;;5.43;;
6243;SDS011;3155;49.940;8.450;2023-09-18T04:09:07;7.60;;;5.68;;
6243;SDS011;3155;49.940;8.450;2023-09-18T04:11:37;8.35;;;5.75;;
6243;SDS011;3155;49.940;8.450;2023-09-18T04:14:05;9.57;;;5.38;;
6243;SDS011;3155;49.940;8.450;2023-09-18T04:16:32;8.52;;;5.68;;
6243;SDS011;3155;49.940;8.450;2023-09-18T04:19:03;7.88;;;6.13;;
6243;SDS011;3155;49.940;8.450;2023-09-18T04:21:38;9.77;;;5.97;;
6243;SDS011;3155;49.940;8.450;2023-09-18T04:24:05;8.82;;;5.80;;
6243;SDS011;3155;49.940;8.450;2023-09-18T04:26:33;8.90;;;5.60;;
6243;SDS011;3155;49.940;8.450;2023-09-18T04:29:00;6.90;;;5.32;;
6243;SDS011;3155;49.940;8.450;2023-09-18T04:31:27;7.30;;;4.93;;
6243;SDS011;3155;49.940;8.450;2023-09-18T04:33:55;6.55;;;4.85;;
6243;SDS011;3155;49.940;8.450;2023-09-18T04:36:22;11.77;;;4.50;;
6243;SDS011;3155;49.940;8.450;2023-09-18T04:38:52;6.35;;;4.35;;
6243;SDS011;3155;49.940;8.450;2023-09-18T04:41:20;13.82;;;4.95;;
6243;SDS011;3155;49.940;8.450;2023-09-18T04:43:47;8.02;;;4.47;;
6243;SDS011;3155;49.940;8.450;2023-09-18T04:46:17;7.70;;;4.30;;
6243;SDS011;3155;49.940;8.450;2023-09-18T04:48:44;5.82;;;4.38;;
6243;SDS011;3155;49.940;8.450;2023-09-18T04:51:14;7.70;;;4.10;;
6243;SDS011;3155;49.940;8.450;2023-09-18T04:53:42;8.77;;;4.78;;
6243;SDS011;3155;49.940;8.450;2023-09-18T04:56:09;9.75;;;4.80;;
6243;SDS011;3155;49.940;8.450;2023-09-18T04:58:37;6.10;;;3.90;;
6243;SDS011;3155;49.940;8.450;2023-09-18T05:01:04;6.13;;;4.13;;
6243;SDS011;3155;49.940;8.450;2023-09-18T05:03:33;5.85;;;4.13;;
6243;SDS011;3155;49.940;8.450;2023-09-18T05:06:01;4.82;;;3.75;;
6243;SDS011;3155;49.940;8.450;2023-09-18T05:08:31;6.30;;;3.92;;
6243;SDS011;3155;49.940;8.450;2023-09-18T05:10:58;6.22;;;3.47;;
6243;SDS011;3155;49.940;8.450;2023-09-18T05:13:28;7.35;;;4.05;;
6243;SDS011;3155;49.940;8.450;2023-09-18T05:15:56;4.80;;;3.53;;
6243;SDS011;3155;49.940;8.450;2023-09-18T05:18:24;4.68;;;3.60;;
6243;SDS011;3155;49.940;8.450;2023-09-18T05:20:51;5.57;;;3.55;;
6243;SDS011;3155;49.940;8.450;2023-09-18T05:23:19;7.03;;;3.40;;
6243;SDS011;3155;49.940;8.450;2023-09-18T05:25:46;4.85;;;3.45;;
6243;SDS011;3155;49.940;8.450;2023-09-18T05:28:16;4.70;;;3.53;;
6243;SDS011;3155;49.940;8.450;2023-09-18T05:30:43;9.30;;;3.67;;
6243;SDS011;3155;49.940;8.450;2023-09-18T05:33:10;5.05;;;3.17;;
6243;SDS011;3155;49.940;8.450;2023-09-18T05:35:41;7.07;;;3.83;;
6243;SDS011;3155;49.940;8.450;2023-09-18T05:38:09;6.68;;;3.88;;
6243;SDS011;3155;49.940;8.450;2023-09-18T05:40:37;6.22;;;3.45;;
6243;SDS011;3155;49.940;8.450;2023-09-18T05:43:04;6.22;;;3.40;;
6243;SDS011;3155;49.940;8.450;2023-09-18T05:45:31;7.25;;;3.63;;
6243;SDS011;3155;49.940;8.450;2023-09-18T05:48:00;6.70;;;3.65;;
6243;SDS011;3155;49.940;8.450;2023-09-18T05:50:31;7.55;;;3.30;;
6243;SDS011;3155;49.940;8.450;2023-09-18T05:52:58;7.05;;;3.20;;
6243;SDS011;3155;49.940;8.450;2023-09-18T05:55:26;10.63;;;3.17;;
6243;SDS011;3155;49.940;8.450;2023-09-18T05:57:54;6.95;;;3.42;;
6243;SDS011;3155;49.940;8.450;2023-09-18T06:00:21;6.85;;;3.13;;
6243;SDS011;3155;49.940;8.450;2023-09-18T06:02:49;8.57;;;3.22;;
6243;SDS011;3155;49.940;8.450;2023-09-18T06:05:20;7.72;;;3.10;;
6243;SDS011;3155;49.940;8.450;2023-09-18T06:07:51;11.70;;;3.53;;
6243;SDS011;3155;49.940;8.450;2023-09-18T06:10:19;7.45;;;3.50;;
6243;SDS011;3155;49.940;8.450;2023-09-18T06:12:47;9.18;;;3.40;;
6243;SDS011;3155;49.940;8.450;2023-09-18T06:15:14;8.73;;;3.05;;
6243;SDS011;3155;49.940;8.450;2023-09-18T06:17:42;10.32;;;3.22;;
6243;SDS011;3155;49.940;8.450;2023-09-18T06:20:10;11.57;;;3.42;;
6243;SDS011;3155;49.940;8.450;2023-09-18T06:22:48;11.77;;;3.28;;
6243;SDS011;3155;49.940;8.450;2023-09-18T06:25:15;11.20;;;3.20;;
6243;SDS011;3155;49.940;8.450;2023-09-18T06:27:42;9.20;;;2.83;;
6243;SDS011;3155;49.940;8.450;2023-09-18T06:30:10;14.43;;;3.10;;
6243;SDS011;3155;49.940;8.450;2023-09-18T06:32:41;10.52;;;3.08;;
6243;SDS011;3155;49.940;8.450;2023-09-18T06:35:08;9.43;;;2.75;;
6243;SDS011;3155;49.940;8.450;2023-09-18T06:37:36;7.63;;;3.15;;
6243;SDS011;3155;49.940;8.450;2023-09-18T06:40:03;9.18;;;3.05;;
6243;SDS011;3155;49.940;8.450;2023-09-18T06:42:31;9.13;;;2.72;;
6243;SDS011;3155;49.940;8.450;2023-09-18T06:45:01;13.15;;;3.22;;
6243;SDS011;3155;49.940;8.450;2023-09-18T06:47:29;8.90;;;2.80;;
6243;SDS011;3155;49.940;8.450;2023-09-18T06:49:56;7.43;;;2.70;;
6243;SDS011;3155;49.940;8.450;2023-09-18T06:52:23;8.80;;;2.85;;
6243;SDS011;3155;49.940;8.450;2023-09-18T06:54:51;9.03;;;3.03;;
6243;SDS011;3155;49.940;8.450;2023-09-18T06:57:18;8.63;;;3.15;;
6243;SDS011;3155;49.940;8.450;2023-09-18T06:59:47;6.43;;;2.97;;
6243;SDS011;3155;49.940;8.450;2023-09-18T07:02:14;9.57;;;2.75;;
6243;SDS011;3155;49.940;8.450;2023-09-18T07:04:42;7.53;;;3.20;;
6243;SDS011;3155;49.940;8.450;2023-09-18T07:07:13;10.35;;;3.10;;
6243;SDS011;3155;49.940;8.450;2023-09-18T07:09:43;11.50;;;2.87;;
6243;SDS011;3155;49.940;8.450;2023-09-18T07:12:13;10.20;;;2.90;;
6243;SDS011;3155;49.940;8.450;2023-09-18T07:14:42;8.82;;;3.17;;
6243;SDS011;3155;49.940;8.450;2023-09-18T07:17:10;10.65;;;3.10;;
6243;SDS011;3155;49.940;8.450;2023-09-18T07:19:40;8.63;;;2.70;;
6243;SDS011;3155;49.940;8.450;2023-09-18T07:22:07;9.77;;;2.87;;
6243;SDS011;3155;49.940;8.450;2023-09-18T07:24:37;9.73;;;2.90;;
6243;SDS011;3155;49.940;8.450;2023-09-18T07:27:09;7.43;;;2.75;;
6243;SDS011;3155;49.940;8.450;2023-09-18T07:29:39;8.32;;;2.63;;
6243;SDS011;3155;49.940;8.450;2023-09-18T07:32:06;8.40;;;2.92;;
6243;SDS011;3155;49.940;8.450;2023-09-18T07:34:34;9.57;;;2.80;;
6243;SDS011;3155;49.940;8.450;2023-09-18T07:37:04;8.90;;;2.60;;
6243;SDS011;3155;49.940;8.450;2023-09-18T07:39:31;7.95;;;2.90;;
6243;SDS011;3155;49.940;8.450;2023-09-18T07:41:59;9.33;;;3.20;;
6243;SDS011;3155;49.940;8.450;2023-09-18T07:44:26;9.82;;;3.08;;
6243;SDS011;3155;49.940;8.450;2023-09-18T07:46:58;8.60;;;2.83;;
6243;SDS011;3155;49.940;8.450;2023-09-18T07:49:27;10.43;;;2.70;;
6243;SDS011;3155;49.940;8.450;2023-09-18T07:51:54;8.05;;;2.20;;
6243;SDS011;3155;49.940;8.450;2023-09-18T07:54:22;8.55;;;2.95;;
6243;SDS011;3155;49.940;8.450;2023-09-18T07:56:49;8.25;;;2.45;;
6243;SDS011;3155;49.940;8.450;2023-09-18T07:59:16;9.15;;;2.70;;
6243;SDS011;3155;49.940;8.450;2023-09-18T08:01:43;8.50;;;2.88;;
6243;SDS011;3155;49.940;8.450;2023-09-18T08:04:11;8.35;;;2.60;;
6243;SDS011;3155;49.940;8.450;2023-09-18T08:06:41;6.23;;;2.63;;
6243;SDS011;3155;49.940;8.450;2023-09-18T08:09:08;9.43;;;2.83;;
6243;SDS011;3155;49.940;8.450;2023-09-18T08:11:41;7.75;;;2.63;;
6243;SDS011;3155;49.940;8.450;2023-09-18T08:14:16;7.97;;;2.47;;
6243;SDS011;3155;49.940;8.450;2023-09-18T08:16:55;7.83;;;2.80;;
6243;SDS011;3155;49.940;8.450;2023-09-18T08:19:23;6.90;;;2.42;;
6243;SDS011;3155;49.940;8.450;2023-09-18T08:21:53;6.55;;;2.72;;
6243;SDS011;3155;49.940;8.450;2023-09-18T08:24:20;5.53;;;2.27;;
6243;SDS011;3155;49.940;8.450;2023-09-18T08:26:48;10.88;;;2.50;;
6243;SDS011;3155;49.940;8.450;2023-09-18T08:29:18;7.38;;;2.40;;
6243;SDS011;3155;49.940;8.450;2023-09-18T08:31:46;5.68;;;2.50;;
6243;SDS011;3155;49.940;8.450;2023-09-18T08:34:13;10.93;;;2.30;;
6243;SDS011;3155;49.940;8.450;2023-09-18T08:36:40;7.25;;;2.03;;
6243;SDS011;3155;49.940;8.450;2023-09-18T08:39:10;13.70;;;2.60;;
6243;SDS011;3155;49.940;8.450;2023-09-18T08:41:42;8.50;;;2.30;;
6243;SDS011;3155;49.940;8.450;2023-09-18T08:44:14;14.00;;;2.33;;
6243;SDS011;3155;49.940;8.450;2023-09-18T08:46:42;7.82;;;2.00;;
6243;SDS011;3155;49.940;8.450;2023-09-18T08:49:09;7.60;;;2.42;;
6243;SDS011;3155;49.940;8.450;2023-09-18T08:51:37;8.10;;;2.40;;
6243;SDS011;3155;49.940;8.450;2023-09-18T08:54:05;9.73;;;2.20;;
6243;SDS011;3155;49.940;8.450;2023-09-18T08:56:35;6.73;;;2.07;;
6243;SDS011;3155;49.940;8.450;2023-09-18T08:59:02;6.88;;;2.03;;
6243;SDS011;3155;49.940;8.450;2023-09-18T09:01:29;8.60;;;2.22;;
6243;SDS011;3155;49.940;8.450;2023-09-18T09:03:56;7.85;;;1.92;;
6243;SDS011;3155;49.940;8.450;2023-09-18T09:06:24;7.85;;;2.08;;
6243;SDS011;3155;49.940;8.450;2023-09-18T09:08:53;5.53;;;1.60;;
6243;SDS011;3155;49.940;8.450;2023-09-18T09:11:21;10.35;;;1.75;;
6243;SDS011;3155;49.940;8.450;2023-09-18T09:13:54;5.47;;;1.40;;
6243;SDS011;3155;49.940;8.450;2023-09-18T09:16:39;4.10;;;1.40;;
6243;SDS011;3155;49.940;8.450;2023-09-18T09:19:06;5.38;;;1.70;;
6243;SDS011;3155;49.940;8.450;2023-09-18T09:21:40;5.78;;;1.30;;
6243;SDS011;3155;49.940;8.450;2023-09-18T09:24:12;3.53;;;1.48;;
6243;SDS011;3155;49.940;8.450;2023-09-18T09:26:40;3.80;;;1.40;;
6243;SDS011;3155;49.940;8.450;2023-09-18T09:29:15;6.40;;;1.77;;
6243;SDS011;3155;49.940;8.450;2023-09-18T09:31:44;3.57;;;1.10;;
6243;SDS011;3155;49.940;8.450;2023-09-18T09:34:26;2.33;;;1.30;;
6243;SDS011;3155;49.940;8.450;2023-09-18T09:36:55;4.22;;;1.52;;
6243;SDS011;3155;49.940;8.450;2023-09-18T09:39:23;4.15;;;1.10;;
6243;SDS011;3155;49.940;8.450;2023-09-18T09:41:52;5.10;;;1.30;;
6243;SDS011;3155;49.940;8.450;2023-09-18T09:44:19;5.77;;;1.37;;
6243;SDS011;3155;49.940;8.450;2023-09-18T09:46:50;3.63;;;1.13;;
6243;SDS011;3155;49.940;8.450;2023-09-18T09:49:18;4.78;;;1.45;;
6243;SDS011;3155;49.940;8.450;2023-09-18T09:51:50;6.03;;;1.60;;
6243;SDS011;3155;49.940;8.450;2023-09-18T09:54:23;4.67;;;1.20;;
6243;SDS011;3155;49.940;8.450;2023-09-18T09:57:01;4.57;;;1.67;;
6243;SDS011;3155;49.940;8.450;2023-09-18T09:59:29;3.00;;;1.20;;
6243;SDS011;3155;49.940;8.450;2023-09-18T10:01:59;3.70;;;1.40;;
6243;SDS011;3155;49.940;8.450;2023-09-18T10:04:29;2.30;;;0.90;;
6243;SDS011;3155;49.940;8.450;2023-09-18T10:07:05;6.93;;;1.20;;
6243;SDS011;3155;49.940;8.450;2023-09-18T10:09:39;3.00;;;1.13;;
6243;SDS011;3155;49.940;8.450;2023-09-18T10:12:11;3.25;;;1.02;;
6243;SDS011;3155;49.940;8.450;2023-09-18T10:14:39;5.60;;;0.90;;
6243;SDS011;3155;49.940;8.450;2023-09-18T10:17:26;1.45;;;0.90;;
6243;SDS011;3155;49.940;8.450;2023-09-18T10:22:37;4.28;;;1.10;;
6243;SDS011;3155;49.940;8.450;2023-09-18T10:25:19;3.60;;;0.90;;
6243;SDS011;3155;49.940;8.450;2023-09-18T10:27:51;2.38;;;1.17;;
6243;SDS011;3155;49.940;8.450;2023-09-18T10:30:28;3.08;;;0.98;;
6243;SDS011;3155;49.940;8.450;2023-09-18T10:32:56;1.03;;;0.97;;
6243;SDS011;3155;49.940;8.450;2023-09-18T10:35:25;1.63;;;0.90;;
6243;SDS011;3155;49.940;8.450;2023-09-18T10:37:54;2.60;;;1.00;;
6243;SDS011;3155;49.940;8.450;2023-09-18T10:40:21;3.60;;;1.10;;
6243;SDS011;3155;49.940;8.450;2023-09-18T10:42:50;3.22;;;0.80;;
6243;SDS011;3155;49.940;8.450;2023-09-18T10:45:17;2.85;;;0.82;;
6243;SDS011;3155;49.940;8.450;2023-09-18T10:47:44;1.70;;;0.75;;
6243;SDS011;3155;49.940;8.450;2023-09-18T10:50:13;2.05;;;1.10;;
6243;SDS011;3155;49.940;8.450;2023-09-18T10:52:49;3.30;;;0.80;;
6243;SDS011;3155;49.940;8.450;2023-09-18T10:55:16;2.72;;;0.88;;
6243;SDS011;3155;49.940;8.450;2023-09-18T10:57:56;2.13;;;0.90;;
6243;SDS011;3155;49.940;8.450;2023-09-18T11:00:27;1.73;;;1.00;;
6243;SDS011;3155;49.940;8.450;2023-09-18T11:03:17;2.42;;;0.80;;
6243;SDS011;3155;49.940;8.450;2023-09-18T11:05:45;5.70;;;1.27;;
6243;SDS011;3155;49.940;8.450;2023-09-18T11:08:34;3.25;;;0.95;;
6243;SDS011;3155;49.940;8.450;2023-09-18T11:11:07;2.95;;;0.80;;
6243;SDS011;3155;49.940;8.450;2023-09-18T11:13:41;3.03;;;0.77;;
6243;SDS011;3155;49.940;8.450;2023-09-18T11:16:16;1.95;;;0.80;;
6243;SDS011;3155;49.940;8.450;2023-09-18T11:18:48;2.90;;;0.90;;
6243;SDS011;3155;49.940;8.450;2023-09-18T11:21:23;2.50;;;0.70;;
6243;SDS011;3155;49.940;8.450;2023-09-18T11:24:01;3.17;;;0.95;;
6243;SDS011;3155;49.940;8.450;2023-09-18T11:26:34;3.10;;;0.90;;
6243;SDS011;3155;49.940;8.450;2023-09-18T11:29:06;5.43;;;1.02;;
6243;SDS011;3155;49.940;8.450;2023-09-18T11:34:21;3.03;;;1.50;;
6243;SDS011;3155;49.940;8.450;2023-09-18T11:36:55;3.50;;;1.20;;
6243;SDS011;3155;49.940;8.450;2023-09-18T11:39:35;3.75;;;1.10;;
6243;SDS011;3155;49.940;8.450;2023-09-18T11:42:14;3.92;;;1.02;;
6243;SDS011;3155;49.940;8.450;2023-09-18T11:44:43;3.50;;;0.90;;
6243;SDS011;3155;49.940;8.450;2023-09-18T11:47:14;2.00;;;1.00;;
6243;SDS011;3155;49.940;8.450;2023-09-18T11:49:47;1.75;;;0.90;;
6243;SDS011;3155;49.940;8.450;2023-09-18T11:52:22;3.17;;;1.20;;
6243;SDS011;3155;49.940;8.450;2023-09-18T11:54:50;3.78;;;1.00;;
6243;SDS011;3155;49.940;8.450;2023-09-18T11:57:18;3.35;;;1.00;;
6243;SDS011;3155;49.940;8.450;2023-09-18T11:59:48;3.85;;;0.80;;
6243;SDS011;3155;49.940;8.450;2023-09-18T12:02:26;3.63;;;0.90;;
6243;SDS011;3155;49.940;8.450;2023-09-18T12:04:54;1.80;;;0.80;;
6243;SDS011;3155;49.940;8.450;2023-09-18T12:07:22;4.00;;;1.10;;
6243;SDS011;3155;49.940;8.450;2023-09-18T12:09:50;2.42;;;1.00;;
6243;SDS011;3155;49.940;8.450;2023-09-18T12:12:19;2.75;;;0.80;;
6243;SDS011;3155;49.940;8.450;2023-09-18T12:14:47;2.13;;;0.80;;
6243;SDS011;3155;49.940;8.450;2023-09-18T12:17:15;5.53;;;1.00;;
6243;SDS011;3155;49.940;8.450;2023-09-18T12:19:55;5.78;;;0.80;;
6243;SDS011;3155;49.940;8.450;2023-09-18T12:22:26;1.13;;;1.00;;
6243;SDS011;3155;49.940;8.450;2023-09-18T12:25:12;2.50;;;1.00;;
6243;SDS011;3155;49.940;8.450;2023-09-18T12:27:50;2.60;;;0.60;;
6243;SDS011;3155;49.940;8.450;2023-09-18T12:30:18;1.73;;;0.90;;
6243;SDS011;3155;49.940;8.450;2023-09-18T12:32:47;1.42;;;0.98;;
6243;SDS011;3155;49.940;8.450;2023-09-18T12:35:15;2.50;;;0.90;;
6243;SDS011;3155;49.940;8.450;2023-09-18T12:37:46;2.67;;;1.30;;
6243;SDS011;3155;49.940;8.450;2023-09-18T12:40:29;2.60;;;0.90;;
6243;SDS011;3155;49.940;8.450;2023-09-18T12:42:59;2.47;;;0.90;;
6243;SDS011;3155;49.940;8.450;2023-09-18T12:45:27;2.47;;;0.90;;
6243;SDS011;3155;49.940;8.450;2023-09-18T12:47:56;2.42;;;0.90;;
6243;SDS011;3155;49.940;8.450;2023-09-18T12:50:24;4.20;;;1.00;;
6243;SDS011;3155;49.940;8.450;2023-09-18T12:52:52;2.88;;;0.90;;
6243;SDS011;3155;49.940;8.450;2023-09-18T12:55:22;2.78;;;0.95;;
6243;SDS011;3155;49.940;8.450;2023-09-18T12:57:51;1.38;;;0.90;;
6243;SDS011;3155;49.940;8.450;2023-09-18T13:00:19;2.00;;;0.87;;
6243;SDS011;3155;49.940;8.450;2023-09-18T13:02:49;2.55;;;1.10;;
6243;SDS011;3155;49.940;8.450;2023-09-18T13:05:22;1.80;;;0.80;;
6243;SDS011;3155;49.940;8.450;2023-09-18T13:07:53;3.30;;;0.90;;
6243;SDS011;3155;49.940;8.450;2023-09-18T13:10:21;1.60;;;0.90;;
6243;SDS011;3155;49.940;8.450;2023-09-18T13:12:53;1.33;;;0.90;;
6243;SDS011;3155;49.940;8.450;2023-09-18T13:15:29;1.88;;;0.80;;
6243;SDS011;3155;49.940;8.450;2023-09-18T13:17:59;2.53;;;0.90;;
6243;SDS011;3155;49.940;8.450;2023-09-18T13:20:27;1.85;;;1.00;;
6243;SDS011;3155;49.940;8.450;2023-09-18T13:22:57;2.33;;;1.13;;
6243;SDS011;3155;49.940;8.450;2023-09-18T13:25:25;0.93;;;0.90;;
6243;SDS011;3155;49.940;8.450;2023-09-18T13:27:53;1.50;;;0.90;;
6243;SDS011;3155;49.940;8.450;2023-09-18T13:30:21;2.05;;;0.98;;
6243;SDS011;3155;49.940;8.450;2023-09-18T13:32:49;1.65;;;1.02;;
6243;SDS011;3155;49.940;8.450;2023-09-18T13:35:17;1.98;;;0.90;;
6243;SDS011;3155;49.940;8.450;2023-09-18T13:37:45;1.17;;;0.83;;
6243;SDS011;3155;49.940;8.450;2023-09-18T13:40:12;2.73;;;1.10;;
6243;SDS011;3155;49.940;8.450;2023-09-18T13:42:39;1.30;;;0.80;;
6243;SDS011;3155;49.940;8.450;2023-09-18T13:45:12;2.25;;;1.00;;
6243;SDS011;3155;49.940;8.450;2023-09-18T13:47:42;1.65;;;0.82;;
6243;SDS011;3155;49.940;8.450;2023-09-18T13:50:10;1.98;;;1.00;;
6243;SDS011;3155;49.940;8.450;2023-09-18T13:52:39;2.70;;;1.10;;
6243;SDS011;3155;49.940;8.450;2023-09-18T13:55:09;1.88;;;1.15;;
6243;SDS011;3155;49.940;8.450;2023-09-18T13:57:36;2.58;;;1.00;;
6243;SDS011;3155;49.940;8.450;2023-09-18T14:00:09;3.30;;;0.90;;
6243;SDS011;3155;49.940;8.450;2023-09-18T14:02:43;3.88;;;1.30;;
6243;SDS011;3155;49.940;8.450;2023-09-18T14:05:10;1.77;;;1.00;;
6243;SDS011;3155;49.940;8.450;2023-09-18T14:07:43;1.20;;;1.10;;
6243;SDS011;3155;49.940;8.450;2023-09-18T14:10:11;3.33;;;1.35;;
6243;SDS011;3155;49.940;8.450;2023-09-18T14:12:38;2.25;;;1.20;;
6243;SDS011;3155;49.940;8.450;2023-09-18T14:15:06;5.05;;;1.50;;
6243;SDS011;3155;49.940;8.450;2023-09-18T14:17:34;4.55;;;1.27;;
6243;SDS011;3155;49.940;8.450;2023-09-18T14:20:02;4.03;;;1.30;;
6243;SDS011;3155;49.940;8.450;2023-09-18T14:22:33;3.03;;;1.15;;
6243;SDS011;3155;49.940;8.450;2023-09-18T14:25:03;1.63;;;1.17;;
6243;SDS011;3155;49.940;8.450;2023-09-18T14:27:33;5.63;;;1.38;;
6243;SDS011;3155;49.940;8.450;2023-09-18T14:30:02;3.33;;;1.10;;
6243;SDS011;3155;49.940;8.450;2023-09-18T14:32:33;2.85;;;1.48;;
6243;SDS011;3155;49.940;8.450;2023-09-18T14:35:03;3.78;;;1.25;;
6243;SDS011;3155;49.940;8.450;2023-09-18T14:37:31;3.50;;;1.38;;
6243;SDS011;3155;49.940;8.450;2023-09-18T14:39:58;3.38;;;1.35;;
6243;SDS011;3155;49.940;8.450;2023-09-18T14:42:26;2.72;;;1.10;;
6243;SDS011;3155;49.940;8.450;2023-09-18T14:44:53;2.60;;;1.20;;
6243;SDS011;3155;49.940;8.450;2023-09-18T14:47:20;5.20;;;1.50;;
6243;SDS011;3155;49.940;8.450;2023-09-18T14:49:50;2.75;;;1.42;;
6243;SDS011;3155;49.940;8.450;2023-09-18T14:52:17;2.85;;;1.33;;
6243;SDS011;3155;49.940;8.450;2023-09-18T14:54:47;3.10;;;1.33;;
6243;SDS011;3155;49.940;8.450;2023-09-18T14:57:17;2.45;;;1.05;;
6243;SDS011;3155;49.940;8.450;2023-09-18T14:59:44;2.17;;;1.20;;
6243;SDS011;3155;49.940;8.450;2023-09-18T15:02:16;2.40;;;0.97;;
6243;SDS011;3155;49.940;8.450;2023-09-18T15:04:44;3.65;;;1.17;;
6243;SDS011;3155;49.940;8.450;2023-09-18T15:07:12;2.38;;;1.10;;
6243;SDS011;3155;49.940;8.450;2023-09-18T15:09:40;2.55;;;1.25;;
6243;SDS011;3155;49.940;8.450;2023-09-18T15:12:07;1.58;;;1.00;;
6243;SDS011;3155;49.940;8.450;2023-09-18T15:14:35;3.40;;;1.15;;
6243;SDS011;3155;49.940;8.450;2023-09-18T15:17:02;2.60;;;1.20;;
6243;SDS011;3155;49.940;8.450;2023-09-18T15:19:30;3.13;;;1.40;;
6243;SDS011;3155;49.940;8.450;2023-09-18T15:21:57;3.47;;;1.20;;
6243;SDS011;3155;49.940;8.450;2023-09-18T15:24:26;2.92;;;1.48;;
6243;SDS011;3155;49.940;8.450;2023-09-18T15:26:56;3.23;;;1.23;;
6243;SDS011;3155;49.940;8.450;2023-09-18T15:29:23;4.10;;;1.50;;
6243;SDS011;3155;49.940;8.450;2023-09-18T15:31:51;3.97;;;1.08;;
6243;SDS011;3155;49.940;8.450;2023-09-18T15:34:18;8.07;;;1.47;;